createdAt,value
2022-12-13T00:02:03.511Z,13.87
2022-12-13T00:04:48.699Z,13.83
2022-12-13T00:07:37.808Z,13.90
2022-12-13T00:10:23.280Z,13.27
2022-12-13T00:13:08.701Z,13.27
2022-12-13T00:16:02.238Z,12.13
2022-12-13T00:18:48.601Z,11.97
2022-12-13T00:21:34.322Z,13.03
2022-12-13T00:24:19.916Z,13.37
2022-12-13T00:27:05.170Z,12.33
2022-12-13T00:29:51.100Z,12.63
2022-12-13T00:32:36.303Z,11.93
2022-12-13T00:35:21.631Z,11.43
2022-12-13T00:38:07.535Z,12.60
2022-12-13T00:43:30.778Z,11.83
2022-12-13T00:46:19.209Z,13.23
2022-12-13T00:49:05.174Z,11.20
2022-12-13T00:51:50.814Z,11.90
2022-12-13T00:54:36.140Z,11.20
2022-12-13T00:57:21.438Z,11.23
2022-12-13T01:00:07.579Z,11.10
2022-12-13T01:02:53.514Z,10.80
2022-12-13T01:06:13.556Z,12.03
2022-12-13T01:08:45.181Z,10.50
2022-12-13T01:11:30.571Z,10.73
2022-12-13T01:14:17.106Z,11.17
2022-12-13T01:17:03.011Z,10.80
2022-12-13T01:19:48.373Z,10.20
2022-12-13T01:22:33.597Z,10.37
2022-12-13T01:25:18.955Z,10.80
2022-12-13T01:28:04.315Z,10.10
2022-12-13T01:31:17.516Z,10.90
2022-12-13T01:34:10.369Z,9.97
2022-12-13T01:36:58.366Z,9.82
2022-12-13T01:39:44.184Z,9.40
2022-12-13T01:42:30.090Z,10.57
2022-12-13T01:45:25.763Z,9.53
2022-12-13T01:48:19.487Z,9.50
2022-12-13T01:51:07.376Z,9.40
2022-12-13T01:53:54.725Z,10.97
2022-12-13T01:56:50.252Z,9.73
2022-12-13T01:59:38.129Z,9.57
2022-12-13T02:02:24.054Z,8.93
2022-12-13T02:05:38.312Z,9.27
2022-12-13T02:08:24.559Z,9.30
2022-12-13T02:11:11.029Z,8.37
2022-12-13T02:13:57.140Z,8.13
2022-12-13T02:16:55.712Z,9.00
2022-12-13T02:20:02.797Z,8.37
2022-12-13T02:23:03.284Z,9.70
2022-12-13T02:26:07.474Z,8.47
2022-12-13T02:32:17.182Z,8.33
2022-12-13T02:35:25.902Z,14.30
2022-12-13T02:38:35.388Z,8.50
2022-12-13T02:41:24.486Z,7.87
2022-12-13T02:44:31.570Z,8.17
2022-12-13T02:47:22.610Z,9.57
2022-12-13T02:50:09.713Z,8.30
2022-12-13T02:52:55.787Z,8.63
2022-12-13T02:55:41.301Z,7.50
2022-12-13T02:58:33.088Z,8.00
2022-12-13T03:01:41.872Z,7.78
2022-12-13T03:05:15.952Z,7.67
2022-12-13T03:08:20.083Z,8.38
2022-12-13T03:11:13.743Z,7.73
2022-12-13T03:14:08.186Z,7.93
2022-12-13T03:16:55.699Z,7.77
2022-12-13T03:19:41.158Z,6.93
2022-12-13T03:22:26.363Z,7.63
2022-12-13T03:25:11.929Z,7.97
2022-12-13T03:27:57.487Z,7.17
2022-12-13T03:30:46.668Z,7.13
2022-12-13T03:33:32.644Z,7.77
2022-12-13T03:36:19.087Z,8.83
2022-12-13T03:39:04.740Z,9.50
2022-12-13T03:41:50.584Z,9.27
2022-12-13T03:44:35.764Z,9.83
2022-12-13T03:47:21.054Z,9.60
2022-12-13T03:50:25.592Z,10.40
2022-12-13T03:53:22.998Z,10.53
2022-12-13T03:56:16.891Z,10.97
2022-12-13T03:59:02.379Z,10.07
2022-12-13T04:01:48.497Z,9.07
2022-12-13T04:04:33.624Z,9.23
2022-12-13T04:07:21.791Z,9.47
2022-12-13T04:10:26.414Z,7.50
2022-12-13T04:13:30.783Z,10.37
2022-12-13T04:16:16.024Z,8.80
2022-12-13T04:19:01.381Z,7.77
2022-12-13T04:21:46.686Z,8.33
2022-12-13T04:24:32.454Z,10.93
2022-12-13T04:27:17.661Z,7.30
2022-12-13T04:30:03.052Z,7.40
2022-12-13T04:32:48.458Z,7.63
2022-12-13T04:35:33.738Z,7.13
2022-12-13T04:38:19.579Z,8.07
2022-12-13T04:41:07.432Z,8.17
2022-12-13T04:43:54.332Z,7.37
2022-12-13T04:46:40.008Z,7.20
2022-12-13T04:49:25.186Z,7.57
2022-12-13T04:52:10.859Z,7.70
2022-12-13T04:54:56.395Z,8.90
2022-12-13T04:57:41.616Z,9.20
2022-12-13T05:00:27.082Z,8.63
2022-12-13T05:03:12.290Z,7.47
2022-12-13T05:05:57.517Z,6.73
2022-12-13T05:08:42.847Z,8.23
2022-12-13T05:11:35.507Z,10.67
2022-12-13T05:14:23.337Z,8.30
2022-12-13T05:17:09.365Z,10.20
2022-12-13T05:19:56.619Z,9.27
2022-12-13T05:22:42.570Z,10.33
2022-12-13T05:25:28.381Z,14.23
2022-12-13T05:30:58.173Z,10.37
2022-12-13T05:33:43.012Z,11.07
2022-12-13T05:36:28.562Z,11.40
2022-12-13T05:39:28.841Z,9.03
2022-12-13T05:42:14.724Z,11.63
2022-12-13T05:44:59.208Z,10.53
2022-12-13T06:59:17.381Z,8.05
2022-12-13T07:02:03.549Z,8.13
2022-12-13T07:04:49.525Z,6.77
2022-12-13T07:07:35.186Z,8.50
2022-12-13T07:10:22.475Z,8.03
2022-12-13T07:13:08.233Z,8.50
2022-12-13T07:15:53.570Z,9.00
2022-12-13T07:18:46.491Z,9.90
2022-12-13T07:21:31.818Z,6.77
2022-12-13T07:24:17.197Z,6.53
2022-12-13T07:27:03.728Z,7.23
2022-12-13T07:29:49.301Z,6.47
2022-12-13T07:32:34.552Z,6.33
2022-12-13T07:35:19.916Z,6.83
2022-12-13T07:38:09.983Z,7.10
2022-12-13T07:40:58.780Z,5.70
2022-12-13T07:43:43.989Z,7.20
2022-12-13T07:46:32.814Z,7.00
2022-12-13T07:49:19.758Z,5.77
2022-12-13T07:52:11.253Z,6.70
2022-12-13T07:54:56.787Z,6.13
2022-12-13T07:57:42.141Z,5.90
2022-12-13T08:00:27.688Z,6.73
2022-12-13T08:03:17.974Z,7.17
2022-12-13T08:06:12.472Z,5.97
2022-12-13T08:08:58.256Z,5.67
2022-12-13T08:11:43.733Z,5.90
2022-12-13T08:14:28.910Z,5.07
2022-12-13T08:17:14.119Z,6.57
2022-12-13T08:19:59.492Z,5.67
2022-12-13T08:22:44.877Z,6.60
2022-12-13T08:25:35.200Z,6.23
2022-12-13T08:28:20.822Z,6.60
2022-12-13T08:31:11.458Z,5.23
2022-12-13T08:33:57.064Z,5.90
2022-12-13T08:36:47.087Z,6.03
2022-12-13T08:39:37.119Z,6.50
2022-12-13T08:42:25.296Z,6.87
2022-12-13T08:45:11.225Z,6.40
2022-12-13T08:47:58.702Z,5.67
2022-12-13T08:50:44.008Z,6.77
2022-12-13T08:53:32.764Z,6.13
2022-12-13T08:56:26.808Z,5.63
2022-12-13T08:59:12.074Z,5.27
2022-12-13T09:02:04.979Z,4.67
2022-12-13T09:04:50.802Z,6.13
2022-12-13T09:07:37.289Z,5.27
2022-12-13T09:10:27.338Z,6.00
2022-12-13T09:13:13.304Z,5.43
2022-12-13T09:16:23.839Z,4.97
2022-12-13T09:19:25.227Z,5.45
2022-12-13T09:22:14.712Z,5.43
2022-12-13T09:25:02.452Z,6.17
2022-12-13T09:27:48.183Z,5.40
2022-12-13T09:38:27.674Z,5.73
2022-12-13T09:41:28.485Z,6.27
2022-12-13T09:44:45.081Z,5.77
2022-12-13T09:47:46.890Z,5.37
2022-12-13T09:50:37.637Z,5.63
2022-12-13T09:53:25.252Z,5.47
2022-12-13T09:56:21.465Z,5.43
2022-12-13T09:59:12.491Z,5.53
2022-12-13T10:02:14.582Z,5.17
2022-12-13T10:05:22.943Z,6.10
2022-12-13T10:08:14.860Z,6.90
2022-12-13T10:11:00.405Z,6.07
2022-12-13T10:14:13.922Z,4.87
2022-12-13T10:17:04.132Z,5.13
2022-12-13T10:19:53.274Z,5.07
2022-12-13T10:22:38.697Z,5.53
2022-12-13T10:25:51.770Z,5.00
2022-12-13T10:28:37.766Z,4.28
2022-12-13T10:31:23.539Z,5.13
2022-12-13T10:34:22.135Z,4.20
2022-12-13T10:37:28.560Z,5.70
2022-12-13T10:40:45.678Z,4.80
2022-12-13T10:43:32.093Z,4.67
2022-12-13T10:46:25.091Z,4.63
2022-12-13T10:49:28.445Z,4.40
2022-12-13T10:52:31.497Z,4.68
2022-12-13T10:55:34.958Z,5.20
2022-12-13T10:58:20.950Z,4.88
2022-12-13T11:01:18.795Z,6.50
2022-12-13T11:04:27.565Z,5.57
2022-12-13T11:07:29.901Z,4.60
2022-12-13T11:10:28.003Z,4.93
2022-12-13T11:13:29.323Z,6.50
2022-12-13T11:16:30.581Z,5.20
2022-12-13T11:19:27.575Z,5.63
2022-12-13T11:22:30.843Z,4.60
2022-12-13T11:25:26.156Z,5.85
2022-12-13T11:28:27.815Z,6.13
2022-12-13T11:31:28.927Z,5.00
2022-12-13T11:34:31.043Z,6.83
2022-12-13T11:37:26.272Z,5.70
2022-12-13T11:40:24.782Z,5.43
2022-12-13T11:43:22.914Z,5.97
2022-12-13T11:46:22.240Z,4.80
2022-12-13T11:49:21.249Z,4.50
2022-12-13T11:52:28.681Z,5.70
2022-12-13T11:55:27.663Z,5.90
2022-12-13T11:58:45.803Z,5.23
2022-12-13T12:01:43.116Z,5.40
2022-12-13T12:04:59.982Z,5.33
2022-12-13T12:08:20.957Z,4.20
2022-12-13T12:11:22.360Z,5.07
2022-12-13T12:14:22.274Z,4.57
2022-12-13T12:17:12.763Z,15.37
2022-12-13T12:19:58.972Z,7.03
2022-12-13T12:23:03.924Z,5.30
2022-12-13T12:26:18.039Z,6.40
2022-12-13T12:29:31.907Z,4.93
2022-12-13T12:32:33.419Z,4.43
2022-12-13T12:35:38.150Z,5.43
2022-12-13T12:38:46.397Z,6.77
2022-12-13T12:41:35.869Z,6.10
2022-12-13T12:44:34.737Z,5.67
2022-12-13T12:48:39.832Z,4.93
2022-12-13T12:51:02.671Z,6.73
2022-12-13T12:54:11.787Z,6.73
2022-12-13T12:57:18.732Z,6.47
2022-12-13T13:00:36.492Z,5.20
2022-12-13T13:03:24.495Z,5.20
2022-12-13T13:06:24.558Z,6.10
2022-12-13T13:09:12.984Z,5.20
2022-12-13T13:12:02.756Z,4.47
2022-12-13T13:15:43.611Z,4.93
2022-12-13T13:18:48.955Z,4.83
2022-12-13T13:21:41.395Z,4.53
2022-12-13T13:24:27.918Z,4.07
2022-12-13T13:27:29.562Z,4.93
2022-12-13T13:30:24.466Z,4.63
2022-12-13T13:33:44.259Z,5.00
2022-12-13T13:36:46.577Z,5.83
2022-12-13T13:39:31.699Z,4.27
2022-12-13T13:42:20.531Z,4.33
2022-12-13T13:45:26.446Z,3.83
2022-12-13T13:48:22.358Z,4.73
2022-12-13T13:51:49.409Z,5.23
2022-12-13T13:55:25.050Z,4.87
2022-12-13T13:58:35.821Z,5.47
2022-12-13T14:01:50.639Z,7.10
2022-12-13T14:05:07.488Z,4.30
2022-12-13T14:08:24.237Z,4.80
2022-12-13T14:11:34.256Z,4.13
2022-12-13T14:14:51.571Z,4.90
2022-12-13T14:18:22.992Z,5.50
2022-12-13T14:21:16.484Z,6.10
2022-12-13T14:24:05.155Z,4.95
2022-12-13T14:27:21.586Z,5.80
2022-12-13T14:30:27.073Z,5.07
2022-12-13T14:33:23.265Z,4.70
2022-12-13T14:36:15.648Z,6.00
2022-12-13T14:39:26.121Z,4.73
2022-12-13T14:42:26.500Z,3.93
2022-12-13T14:45:23.041Z,5.63
2022-12-13T14:48:15.598Z,5.10
2022-12-13T14:51:39.808Z,6.03
2022-12-13T14:54:26.302Z,5.67
2022-12-13T14:57:18.813Z,6.03
2022-12-13T15:00:29.949Z,6.17
2022-12-13T15:03:24.788Z,5.60
2022-12-13T15:06:11.168Z,5.00
2022-12-13T15:08:56.516Z,5.93
2022-12-13T15:11:44.565Z,4.90
2022-12-13T15:14:30.018Z,8.27
2022-12-13T15:17:26.631Z,6.07
2022-12-13T15:20:22.796Z,9.30
2022-12-13T15:23:31.747Z,8.40
2022-12-13T15:26:28.051Z,5.97
2022-12-13T15:29:21.853Z,6.17
2022-12-13T15:32:13.065Z,6.80
2022-12-13T15:35:15.374Z,7.97
2022-12-13T15:38:01.901Z,8.20
2022-12-13T15:40:49.460Z,9.23
2022-12-13T15:43:46.868Z,13.87
2022-12-13T15:46:37.927Z,9.57
2022-12-13T15:49:54.057Z,8.60
2022-12-13T15:52:41.316Z,9.70
2022-12-13T15:55:33.922Z,8.67
2022-12-13T15:58:26.390Z,8.63
2022-12-13T16:01:25.851Z,14.27
2022-12-13T16:04:11.163Z,13.87
2022-12-13T16:06:57.424Z,25.33
2022-12-13T16:09:48.534Z,44.67
2022-12-13T16:12:47.603Z,56.63
2022-12-13T16:15:48.735Z,55.60
2022-12-13T16:18:44.764Z,51.90
2022-12-13T16:21:30.527Z,33.77
2022-12-13T16:24:16.106Z,27.67
2022-12-13T16:27:01.588Z,20.37
2022-12-13T16:29:54.220Z,22.45
2022-12-13T16:33:10.840Z,25.47
2022-12-13T16:35:45.520Z,35.03
2022-12-13T16:38:30.812Z,34.23
2022-12-13T16:41:16.564Z,39.07
2022-12-13T16:44:04.338Z,30.37
2022-12-13T16:47:13.097Z,29.13
2022-12-13T16:49:55.335Z,26.70
2022-12-13T16:52:40.716Z,31.57
2022-12-13T16:55:26.154Z,24.47
2022-12-13T16:58:18.061Z,26.13
2022-12-13T17:01:11.341Z,20.47
2022-12-13T17:06:43.572Z,21.53
2022-12-13T17:09:29.480Z,24.13
2022-12-13T17:12:15.656Z,22.97
2022-12-13T17:15:01.779Z,21.77
2022-12-13T17:17:47.592Z,23.53
2022-12-13T17:20:33.281Z,18.60
2022-12-13T17:23:18.707Z,21.33
2022-12-13T17:26:09.564Z,17.97
2022-12-13T17:28:55.064Z,18.20
2022-12-13T17:31:40.541Z,17.50
2022-12-13T17:34:25.997Z,16.23
2022-12-13T17:37:11.535Z,20.23
2022-12-13T17:39:56.829Z,18.43
2022-12-13T17:42:42.314Z,16.73
2022-12-13T17:45:28.019Z,17.27
2022-12-13T17:48:13.717Z,18.77
2022-12-13T17:50:59.308Z,20.53
2022-12-13T17:53:45.024Z,16.47
2022-12-13T17:56:30.775Z,15.40
2022-12-13T17:59:17.382Z,19.17
2022-12-13T18:02:02.849Z,12.83
2022-12-13T18:04:51.979Z,17.77
2022-12-13T18:07:37.391Z,18.63
2022-12-13T18:10:29.293Z,19.37
2022-12-13T18:13:16.215Z,16.77
2022-12-13T18:16:07.187Z,15.93
2022-12-13T18:18:57.209Z,14.57
2022-12-13T18:21:45.830Z,14.07
2022-12-13T18:24:31.701Z,13.73
2022-12-13T18:27:17.276Z,17.40
2022-12-13T18:30:02.953Z,13.00
2022-12-13T18:32:48.541Z,12.47
2022-12-13T18:35:34.793Z,19.30
2022-12-13T18:38:21.052Z,17.20
2022-12-13T18:41:13.965Z,14.43
2022-12-13T18:44:05.353Z,13.20
2022-12-13T18:46:51.810Z,11.77
2022-12-13T18:49:37.544Z,13.20
2022-12-13T18:52:23.851Z,12.17
2022-12-13T18:55:09.484Z,10.93
2022-12-13T18:57:55.246Z,10.77
2022-12-13T19:00:40.639Z,12.33
2022-12-13T19:03:26.782Z,13.47
2022-12-13T19:06:18.844Z,11.30
2022-12-13T19:09:04.389Z,9.93
2022-12-13T19:11:49.887Z,11.53
2022-12-13T19:14:35.236Z,10.20
2022-12-13T19:17:21.000Z,13.77
2022-12-13T19:20:07.188Z,11.17
2022-12-13T19:22:52.504Z,11.13
2022-12-13T19:25:37.807Z,10.60
2022-12-13T19:28:23.163Z,9.20
2022-12-13T19:31:11.159Z,11.13
2022-12-13T19:33:56.839Z,10.17
2022-12-13T19:36:42.194Z,9.30
2022-12-13T19:39:27.558Z,7.77
2022-12-13T19:42:12.956Z,9.97
2022-12-13T19:44:58.474Z,8.37
2022-12-13T19:47:48.600Z,10.50
2022-12-13T19:50:34.321Z,12.57
2022-12-13T19:53:19.804Z,9.20
2022-12-13T19:56:15.556Z,10.30
2022-12-13T19:59:01.380Z,9.67
2022-12-13T20:01:47.405Z,8.10
2022-12-13T20:04:34.334Z,9.13
2022-12-13T20:07:21.162Z,8.83
2022-12-13T20:10:28.254Z,7.87
2022-12-13T20:13:14.467Z,8.27
2022-12-13T20:16:00.441Z,6.77
2022-12-13T20:18:46.759Z,7.13
2022-12-13T20:21:32.363Z,9.07
2022-12-13T20:24:17.655Z,6.87
2022-12-13T20:27:04.035Z,8.23
2022-12-13T20:29:49.540Z,7.17
2022-12-13T20:32:34.812Z,7.40
2022-12-13T20:35:20.528Z,8.87
2022-12-13T20:38:05.997Z,8.30
2022-12-13T20:40:51.144Z,6.13
2022-12-13T20:43:36.677Z,7.90
2022-12-13T20:46:23.200Z,8.30
2022-12-13T20:49:10.055Z,8.73
2022-12-13T20:51:55.568Z,8.53
2022-12-13T20:54:40.779Z,10.17
2022-12-13T20:57:26.401Z,6.60
2022-12-13T21:00:12.605Z,8.07
2022-12-13T21:02:58.346Z,6.47
2022-12-13T21:05:46.463Z,7.53
2022-12-13T21:08:50.790Z,6.20
2022-12-13T21:11:40.567Z,7.75
2022-12-13T21:14:28.536Z,8.63
2022-12-13T21:17:13.872Z,7.03
2022-12-13T21:19:59.316Z,8.80
2022-12-13T21:22:45.288Z,7.90
2022-12-13T21:25:30.657Z,5.87
2022-12-13T21:28:15.974Z,5.93
2022-12-13T21:31:03.530Z,6.80
2022-12-13T21:33:57.799Z,7.53
2022-12-13T21:36:45.432Z,8.90
2022-12-13T21:39:31.062Z,6.30
2022-12-13T21:42:16.488Z,8.17
2022-12-13T21:45:02.529Z,6.63
2022-12-13T21:47:48.179Z,8.00
2022-12-13T21:50:33.659Z,5.67
2022-12-13T21:53:19.150Z,7.53
2022-12-13T21:56:27.926Z,7.13
2022-12-13T21:59:15.672Z,8.17
2022-12-13T22:02:20.165Z,7.23
2022-12-13T22:05:06.333Z,7.20
2022-12-13T22:07:51.650Z,6.57
2022-12-13T22:10:57.592Z,7.23
2022-12-13T22:13:43.312Z,7.80
2022-12-13T22:16:34.389Z,5.77
2022-12-13T22:19:19.973Z,6.77
2022-12-13T22:22:05.761Z,6.50
2022-12-13T22:24:53.893Z,7.50
2022-12-13T22:27:40.504Z,6.10
2022-12-13T22:30:26.112Z,8.33
2022-12-13T22:33:11.814Z,6.73
2022-12-13T22:35:57.098Z,7.83
2022-12-13T22:38:42.738Z,8.17
2022-12-13T22:41:28.387Z,6.37
2022-12-13T22:44:15.872Z,7.00
2022-12-13T22:47:01.200Z,6.43
2022-12-13T22:49:48.646Z,6.93
2022-12-13T22:52:34.537Z,6.30
2022-12-13T22:55:20.475Z,4.80
2022-12-13T22:58:05.699Z,7.40
2022-12-13T23:00:51.060Z,7.37
2022-12-13T23:03:37.420Z,6.13
2022-12-13T23:06:25.595Z,8.87
2022-12-13T23:09:13.094Z,6.10
2022-12-13T23:12:17.328Z,5.63
2022-12-13T23:15:02.524Z,6.22
2022-12-13T23:17:48.060Z,6.03
2022-12-13T23:20:34.407Z,5.40
2022-12-13T23:23:20.075Z,6.27
2022-12-13T23:26:17.128Z,6.00
2022-12-13T23:29:05.323Z,7.33
2022-12-13T23:31:50.836Z,6.97
2022-12-13T23:34:36.009Z,7.57
2022-12-13T23:37:21.365Z,5.37
2022-12-13T23:40:07.875Z,7.87
2022-12-13T23:42:53.176Z,7.60
2022-12-13T23:45:38.680Z,7.90
2022-12-13T23:48:26.994Z,5.27
2022-12-13T23:51:14.828Z,5.70
2022-12-13T23:54:00.500Z,6.23
2022-12-13T23:56:46.636Z,5.50
2022-12-13T23:59:32.103Z,5.77
